sensor_id;sensor_type;location;lat;lon;timestamp;P1;durP1;ratioP1;P2;durP2;ratioP2
38853;SDS011;24606;51.992;4.198;2022-10-16T00:00:40;3.00;;;0.90;;
38853;SDS011;24606;51.992;4.198;2022-10-16T00:05:43;1.73;;;0.60;;
38853;SDS011;24606;51.992;4.198;2022-10-16T00:10:46;2.53;;;0.93;;
38853;SDS011;24606;51.992;4.198;2022-10-16T00:15:48;1.20;;;0.45;;
38853;SDS011;24606;51.992;4.198;2022-10-16T00:20:50;1.93;;;0.80;;
38853;SDS011;24606;51.992;4.198;2022-10-16T00:25:57;2.75;;;0.80;;
38853;SDS011;24606;51.992;4.198;2022-10-16T00:31:02;1.92;;;0.65;;
38853;SDS011;24606;51.992;4.198;2022-10-16T00:36:06;1.17;;;0.65;;
38853;SDS011;24606;51.992;4.198;2022-10-16T00:41:13;1.60;;;0.60;;
38853;SDS011;24606;51.992;4.198;2022-10-16T00:46:18;1.42;;;0.50;;
38853;SDS011;24606;51.992;4.198;2022-10-16T00:51:23;0.63;;;0.45;;
38853;SDS011;24606;51.992;4.198;2022-10-16T00:56:31;1.15;;;0.50;;
38853;SDS011;24606;51.992;4.198;2022-10-16T01:01:33;2.28;;;0.80;;
38853;SDS011;24606;51.992;4.198;2022-10-16T01:06:36;1.95;;;0.80;;
38853;SDS011;24606;51.992;4.198;2022-10-16T01:11:48;3.08;;;0.93;;
38853;SDS011;24606;51.992;4.198;2022-10-16T01:22:00;1.33;;;0.70;;
38853;SDS011;24606;51.992;4.198;2022-10-16T01:27:11;2.22;;;0.45;;
38853;SDS011;24606;51.992;4.198;2022-10-16T01:32:16;1.33;;;0.80;;
38853;SDS011;24606;51.992;4.198;2022-10-16T01:37:25;1.83;;;0.55;;
38853;SDS011;24606;51.992;4.198;2022-10-16T01:42:36;3.60;;;0.40;;
38853;SDS011;24606;51.992;4.198;2022-10-16T01:47:41;3.13;;;0.70;;
38853;SDS011;24606;51.992;4.198;2022-10-16T01:52:45;1.65;;;0.82;;
38853;SDS011;24606;51.992;4.198;2022-10-16T01:57:52;3.40;;;0.63;;
38853;SDS011;24606;51.992;4.198;2022-10-16T02:02:56;2.67;;;0.60;;
38853;SDS011;24606;51.992;4.198;2022-10-16T02:08:01;4.13;;;0.60;;
38853;SDS011;24606;51.992;4.198;2022-10-16T02:13:06;2.83;;;0.52;;
38853;SDS011;24606;51.992;4.198;2022-10-16T02:18:10;1.33;;;0.70;;
38853;SDS011;24606;51.992;4.198;2022-10-16T02:23:13;4.85;;;1.00;;
38853;SDS011;24606;51.992;4.198;2022-10-16T02:28:25;3.20;;;0.52;;
38853;SDS011;24606;51.992;4.198;2022-10-16T02:33:33;3.13;;;0.82;;
38853;SDS011;24606;51.992;4.198;2022-10-16T02:38:37;1.33;;;0.40;;
38853;SDS011;24606;51.992;4.198;2022-10-16T02:43:42;0.57;;;0.40;;
38853;SDS011;24606;51.992;4.198;2022-10-16T02:48:44;1.35;;;0.55;;
38853;SDS011;24606;51.992;4.198;2022-10-16T02:53:45;1.73;;;0.45;;
38853;SDS011;24606;51.992;4.198;2022-10-16T02:58:49;0.82;;;0.57;;
38853;SDS011;24606;51.992;4.198;2022-10-16T03:03:50;1.42;;;0.60;;
38853;SDS011;24606;51.992;4.198;2022-10-16T03:08:52;2.25;;;0.70;;
38853;SDS011;24606;51.992;4.198;2022-10-16T03:13:55;5.33;;;0.70;;
38853;SDS011;24606;51.992;4.198;2022-10-16T03:18:57;1.08;;;0.70;;
38853;SDS011;24606;51.992;4.198;2022-10-16T03:23:59;2.40;;;1.30;;
38853;SDS011;24606;51.992;4.198;2022-10-16T03:29:03;1.40;;;0.65;;
38853;SDS011;24606;51.992;4.198;2022-10-16T03:34:05;4.38;;;0.55;;
38853;SDS011;24606;51.992;4.198;2022-10-16T03:39:07;3.10;;;0.90;;
38853;SDS011;24606;51.992;4.198;2022-10-16T03:44:10;5.13;;;1.00;;
38853;SDS011;24606;51.992;4.198;2022-10-16T03:49:12;3.70;;;0.68;;
38853;SDS011;24606;51.992;4.198;2022-10-16T03:54:14;1.90;;;0.50;;
38853;SDS011;24606;51.992;4.198;2022-10-16T03:59:17;1.80;;;0.93;;
38853;SDS011;24606;51.992;4.198;2022-10-16T04:04:19;1.27;;;0.30;;
38853;SDS011;24606;51.992;4.198;2022-10-16T04:09:21;1.42;;;0.70;;
38853;SDS011;24606;51.992;4.198;2022-10-16T04:14:24;4.97;;;0.68;;
38853;SDS011;24606;51.992;4.198;2022-10-16T04:19:26;0.40;;;0.32;;
38853;SDS011;24606;51.992;4.198;2022-10-16T04:24:28;0.60;;;0.57;;
38853;SDS011;24606;51.992;4.198;2022-10-16T04:29:31;3.90;;;0.88;;
38853;SDS011;24606;51.992;4.198;2022-10-16T04:34:32;4.60;;;0.85;;
38853;SDS011;24606;51.992;4.198;2022-10-16T04:39:34;6.80;;;1.30;;
38853;SDS011;24606;51.992;4.198;2022-10-16T04:44:37;1.85;;;0.50;;
38853;SDS011;24606;51.992;4.198;2022-10-16T04:49:39;3.33;;;1.10;;
38853;SDS011;24606;51.992;4.198;2022-10-16T04:54:41;1.00;;;0.50;;
38853;SDS011;24606;51.992;4.198;2022-10-16T04:59:46;5.70;;;1.98;;
38853;SDS011;24606;51.992;4.198;2022-10-16T05:04:48;3.97;;;1.10;;
38853;SDS011;24606;51.992;4.198;2022-10-16T05:09:50;4.73;;;1.80;;
38853;SDS011;24606;51.992;4.198;2022-10-16T05:14:53;1.57;;;0.73;;
38853;SDS011;24606;51.992;4.198;2022-10-16T05:19:58;0.55;;;0.40;;
38853;SDS011;24606;51.992;4.198;2022-10-16T05:25:00;3.70;;;0.70;;
38853;SDS011;24606;51.992;4.198;2022-10-16T05:30:03;5.30;;;0.90;;
38853;SDS011;24606;51.992;4.198;2022-10-16T05:35:06;1.02;;;0.50;;
38853;SDS011;24606;51.992;4.198;2022-10-16T05:40:09;2.53;;;0.90;;
38853;SDS011;24606;51.992;4.198;2022-10-16T05:45:13;1.85;;;0.70;;
38853;SDS011;24606;51.992;4.198;2022-10-16T05:50:15;1.52;;;0.70;;
38853;SDS011;24606;51.992;4.198;2022-10-16T05:55:17;3.05;;;0.70;;
38853;SDS011;24606;51.992;4.198;2022-10-16T06:00:20;4.07;;;0.67;;
38853;SDS011;24606;51.992;4.198;2022-10-16T06:05:22;8.30;;;0.85;;
38853;SDS011;24606;51.992;4.198;2022-10-16T06:10:23;6.80;;;1.00;;
38853;SDS011;24606;51.992;4.198;2022-10-16T06:15:27;3.57;;;0.67;;
38853;SDS011;24606;51.992;4.198;2022-10-16T06:20:28;4.50;;;1.00;;
38853;SDS011;24606;51.992;4.198;2022-10-16T06:25:30;4.10;;;1.00;;
38853;SDS011;24606;51.992;4.198;2022-10-16T06:30:34;5.10;;;1.00;;
38853;SDS011;24606;51.992;4.198;2022-10-16T06:35:36;2.78;;;0.73;;
38853;SDS011;24606;51.992;4.198;2022-10-16T06:40:38;6.33;;;0.80;;
38853;SDS011;24606;51.992;4.198;2022-10-16T06:45:41;4.93;;;0.90;;
38853;SDS011;24606;51.992;4.198;2022-10-16T06:50:43;4.28;;;1.02;;
38853;SDS011;24606;51.992;4.198;2022-10-16T06:55:44;1.80;;;0.67;;
38853;SDS011;24606;51.992;4.198;2022-10-16T07:00:48;3.57;;;1.20;;
38853;SDS011;24606;51.992;4.198;2022-10-16T07:05:50;4.50;;;0.95;;
38853;SDS011;24606;51.992;4.198;2022-10-16T07:10:57;3.60;;;0.93;;
38853;SDS011;24606;51.992;4.198;2022-10-16T07:16:05;8.23;;;0.90;;
38853;SDS011;24606;51.992;4.198;2022-10-16T07:21:08;4.35;;;0.68;;
38853;SDS011;24606;51.992;4.198;2022-10-16T07:26:11;5.93;;;0.95;;
38853;SDS011;24606;51.992;4.198;2022-10-16T07:31:15;5.97;;;1.33;;
38853;SDS011;24606;51.992;4.198;2022-10-16T07:36:19;4.78;;;1.52;;
38853;SDS011;24606;51.992;4.198;2022-10-16T07:41:22;9.05;;;1.30;;
38853;SDS011;24606;51.992;4.198;2022-10-16T07:46:25;2.85;;;0.95;;
38853;SDS011;24606;51.992;4.198;2022-10-16T07:51:27;11.63;;;1.00;;
38853;SDS011;24606;51.992;4.198;2022-10-16T07:56:30;3.85;;;1.52;;
38853;SDS011;24606;51.992;4.198;2022-10-16T08:01:33;4.82;;;1.20;;
38853;SDS011;24606;51.992;4.198;2022-10-16T08:06:35;9.95;;;1.67;;
38853;SDS011;24606;51.992;4.198;2022-10-16T08:11:38;5.00;;;1.10;;
38853;SDS011;24606;51.992;4.198;2022-10-16T08:16:41;4.47;;;1.07;;
38853;SDS011;24606;51.992;4.198;2022-10-16T08:21:46;5.75;;;1.15;;
38853;SDS011;24606;51.992;4.198;2022-10-16T08:26:48;5.05;;;0.80;;
38853;SDS011;24606;51.992;4.198;2022-10-16T08:31:51;8.53;;;1.27;;
38853;SDS011;24606;51.992;4.198;2022-10-16T08:36:53;5.00;;;1.20;;
38853;SDS011;24606;51.992;4.198;2022-10-16T08:47:38;7.63;;;1.67;;
38853;SDS011;24606;51.992;4.198;2022-10-16T08:52:46;13.65;;;2.15;;
38853;SDS011;24606;51.992;4.198;2022-10-16T08:57:48;10.43;;;2.73;;
38853;SDS011;24606;51.992;4.198;2022-10-16T09:02:52;10.02;;;1.42;;
38853;SDS011;24606;51.992;4.198;2022-10-16T09:13:13;7.45;;;1.75;;
38853;SDS011;24606;51.992;4.198;2022-10-16T09:18:23;9.40;;;1.70;;
38853;SDS011;24606;51.992;4.198;2022-10-16T09:23:30;5.07;;;1.15;;
38853;SDS011;24606;51.992;4.198;2022-10-16T09:28:35;8.77;;;1.65;;
38853;SDS011;24606;51.992;4.198;2022-10-16T09:33:39;8.93;;;1.13;;
38853;SDS011;24606;51.992;4.198;2022-10-16T09:38:42;14.65;;;1.73;;
38853;SDS011;24606;51.992;4.198;2022-10-16T09:43:48;23.03;;;2.80;;
38853;SDS011;24606;51.992;4.198;2022-10-16T09:48:56;5.25;;;1.23;;
38853;SDS011;24606;51.992;4.198;2022-10-16T09:54:00;7.35;;;1.63;;
38853;SDS011;24606;51.992;4.198;2022-10-16T09:59:14;14.57;;;1.75;;
38853;SDS011;24606;51.992;4.198;2022-10-16T10:04:19;15.57;;;1.95;;
38853;SDS011;24606;51.992;4.198;2022-10-16T10:09:22;14.73;;;2.58;;
38853;SDS011;24606;51.992;4.198;2022-10-16T10:14:27;13.32;;;1.83;;
38853;SDS011;24606;51.992;4.198;2022-10-16T10:19:38;8.90;;;1.90;;
38853;SDS011;24606;51.992;4.198;2022-10-16T10:24:41;11.57;;;1.70;;
38853;SDS011;24606;51.992;4.198;2022-10-16T10:29:47;13.48;;;2.33;;
38853;SDS011;24606;51.992;4.198;2022-10-16T10:35:03;14.38;;;1.65;;
38853;SDS011;24606;51.992;4.198;2022-10-16T10:40:15;5.45;;;1.20;;
38853;SDS011;24606;51.992;4.198;2022-10-16T10:45:32;16.13;;;2.28;;
38853;SDS011;24606;51.992;4.198;2022-10-16T10:50:41;12.45;;;1.67;;
38853;SDS011;24606;51.992;4.198;2022-10-16T10:55:50;11.13;;;1.50;;
38853;SDS011;24606;51.992;4.198;2022-10-16T11:01:01;8.05;;;1.38;;
38853;SDS011;24606;51.992;4.198;2022-10-16T11:06:10;8.13;;;1.50;;
38853;SDS011;24606;51.992;4.198;2022-10-16T11:11:18;11.55;;;1.30;;
38853;SDS011;24606;51.992;4.198;2022-10-16T11:16:26;8.82;;;0.98;;
38853;SDS011;24606;51.992;4.198;2022-10-16T11:21:33;10.85;;;1.48;;
38853;SDS011;24606;51.992;4.198;2022-10-16T11:26:41;10.43;;;1.35;;
38853;SDS011;24606;51.992;4.198;2022-10-16T11:31:46;17.42;;;1.88;;
38853;SDS011;24606;51.992;4.198;2022-10-16T11:36:56;6.78;;;0.95;;
38853;SDS011;24606;51.992;4.198;2022-10-16T11:42:03;13.75;;;2.20;;
38853;SDS011;24606;51.992;4.198;2022-10-16T11:47:12;10.77;;;1.25;;
38853;SDS011;24606;51.992;4.198;2022-10-16T11:52:28;10.73;;;1.48;;
38853;SDS011;24606;51.992;4.198;2022-10-16T11:57:38;6.43;;;1.38;;
38853;SDS011;24606;51.992;4.198;2022-10-16T12:02:48;10.38;;;1.88;;
38853;SDS011;24606;51.992;4.198;2022-10-16T12:08:01;12.60;;;1.73;;
38853;SDS011;24606;51.992;4.198;2022-10-16T12:18:34;10.10;;;1.25;;
38853;SDS011;24606;51.992;4.198;2022-10-16T12:23:38;14.32;;;2.35;;
38853;SDS011;24606;51.992;4.198;2022-10-16T12:28:48;2.53;;;0.90;;
38853;SDS011;24606;51.992;4.198;2022-10-16T12:33:56;9.18;;;1.45;;
38853;SDS011;24606;51.992;4.198;2022-10-16T12:39:01;9.40;;;1.35;;
38853;SDS011;24606;51.992;4.198;2022-10-16T12:44:04;6.53;;;1.13;;
38853;SDS011;24606;51.992;4.198;2022-10-16T12:49:07;10.20;;;1.67;;
38853;SDS011;24606;51.992;4.198;2022-10-16T12:54:27;8.20;;;1.77;;
38853;SDS011;24606;51.992;4.198;2022-10-16T12:59:33;10.05;;;1.20;;
38853;SDS011;24606;51.992;4.198;2022-10-16T13:04:44;11.97;;;2.30;;
38853;SDS011;24606;51.992;4.198;2022-10-16T13:09:58;5.22;;;1.42;;
38853;SDS011;24606;51.992;4.198;2022-10-16T13:15:17;13.02;;;2.10;;
38853;SDS011;24606;51.992;4.198;2022-10-16T13:20:28;7.32;;;1.30;;
38853;SDS011;24606;51.992;4.198;2022-10-16T13:25:39;5.95;;;1.27;;
38853;SDS011;24606;51.992;4.198;2022-10-16T13:30:51;3.85;;;0.80;;
38853;SDS011;24606;51.992;4.198;2022-10-16T13:35:55;10.43;;;1.33;;
38853;SDS011;24606;51.992;4.198;2022-10-16T13:41:00;4.00;;;1.17;;
38853;SDS011;24606;51.992;4.198;2022-10-16T13:46:03;10.93;;;2.30;;
38853;SDS011;24606;51.992;4.198;2022-10-16T13:51:10;9.30;;;1.60;;
38853;SDS011;24606;51.992;4.198;2022-10-16T13:56:16;14.23;;;1.90;;
38853;SDS011;24606;51.992;4.198;2022-10-16T14:01:22;8.40;;;2.00;;
38853;SDS011;24606;51.992;4.198;2022-10-16T14:06:26;7.88;;;2.13;;
38853;SDS011;24606;51.992;4.198;2022-10-16T14:11:29;9.02;;;2.35;;
38853;SDS011;24606;51.992;4.198;2022-10-16T14:16:31;9.65;;;2.20;;
38853;SDS011;24606;51.992;4.198;2022-10-16T14:21:33;19.35;;;2.83;;
38853;SDS011;24606;51.992;4.198;2022-10-16T14:31:53;11.88;;;2.90;;
38853;SDS011;24606;51.992;4.198;2022-10-16T14:36:56;8.18;;;2.15;;
38853;SDS011;24606;51.992;4.198;2022-10-16T14:42:02;6.25;;;1.92;;
38853;SDS011;24606;51.992;4.198;2022-10-16T14:47:07;9.88;;;2.53;;
38853;SDS011;24606;51.992;4.198;2022-10-16T14:52:13;8.98;;;2.38;;
38853;SDS011;24606;51.992;4.198;2022-10-16T15:02:20;9.60;;;2.45;;
38853;SDS011;24606;51.992;4.198;2022-10-16T15:07:28;4.72;;;1.95;;
38853;SDS011;24606;51.992;4.198;2022-10-16T15:12:31;6.03;;;2.20;;
38853;SDS011;24606;51.992;4.198;2022-10-16T15:17:33;8.90;;;1.63;;
38853;SDS011;24606;51.992;4.198;2022-10-16T15:22:35;6.18;;;1.77;;
38853;SDS011;24606;51.992;4.198;2022-10-16T15:27:38;5.50;;;1.88;;
38853;SDS011;24606;51.992;4.198;2022-10-16T15:32:40;6.03;;;1.65;;
38853;SDS011;24606;51.992;4.198;2022-10-16T15:37:42;3.92;;;1.75;;
38853;SDS011;24606;51.992;4.198;2022-10-16T15:47:48;6.97;;;1.95;;
38853;SDS011;24606;51.992;4.198;2022-10-16T15:52:50;10.27;;;1.50;;
38853;SDS011;24606;51.992;4.198;2022-10-16T16:02:55;3.58;;;0.90;;
38853;SDS011;24606;51.992;4.198;2022-10-16T16:07:57;4.72;;;1.45;;
38853;SDS011;24606;51.992;4.198;2022-10-16T16:18:02;9.73;;;2.85;;
38853;SDS011;24606;51.992;4.198;2022-10-16T16:23:05;4.22;;;1.20;;
38853;SDS011;24606;51.992;4.198;2022-10-16T16:28:08;7.97;;;1.75;;
38853;SDS011;24606;51.992;4.198;2022-10-16T16:33:14;9.63;;;1.77;;
38853;SDS011;24606;51.992;4.198;2022-10-16T16:38:16;5.57;;;2.35;;
38853;SDS011;24606;51.992;4.198;2022-10-16T16:43:19;11.48;;;2.13;;
38853;SDS011;24606;51.992;4.198;2022-10-16T16:48:24;13.48;;;2.58;;
38853;SDS011;24606;51.992;4.198;2022-10-16T16:53:26;13.82;;;2.28;;
38853;SDS011;24606;51.992;4.198;2022-10-16T16:58:29;11.27;;;2.42;;
38853;SDS011;24606;51.992;4.198;2022-10-16T17:03:32;21.02;;;4.05;;
38853;SDS011;24606;51.992;4.198;2022-10-16T17:08:35;20.20;;;3.63;;
38853;SDS011;24606;51.992;4.198;2022-10-16T17:13:39;16.92;;;3.00;;
38853;SDS011;24606;51.992;4.198;2022-10-16T17:18:41;13.40;;;3.90;;
38853;SDS011;24606;51.992;4.198;2022-10-16T17:23:44;17.35;;;3.00;;
38853;SDS011;24606;51.992;4.198;2022-10-16T17:33:51;16.63;;;3.17;;
38853;SDS011;24606;51.992;4.198;2022-10-16T17:38:54;9.85;;;3.22;;
38853;SDS011;24606;51.992;4.198;2022-10-16T17:44:01;15.10;;;2.92;;
38853;SDS011;24606;51.992;4.198;2022-10-16T17:49:04;10.73;;;2.83;;
38853;SDS011;24606;51.992;4.198;2022-10-16T17:54:06;17.35;;;3.08;;
38853;SDS011;24606;51.992;4.198;2022-10-16T17:59:10;21.38;;;3.22;;
38853;SDS011;24606;51.992;4.198;2022-10-16T18:04:13;17.17;;;3.13;;
38853;SDS011;24606;51.992;4.198;2022-10-16T18:09:17;13.85;;;3.05;;
38853;SDS011;24606;51.992;4.198;2022-10-16T18:14:21;12.43;;;3.30;;
38853;SDS011;24606;51.992;4.198;2022-10-16T18:19:23;11.75;;;2.28;;
38853;SDS011;24606;51.992;4.198;2022-10-16T18:24:26;15.98;;;2.35;;
38853;SDS011;24606;51.992;4.198;2022-10-16T18:29:29;11.00;;;2.50;;
38853;SDS011;24606;51.992;4.198;2022-10-16T18:34:32;11.48;;;2.85;;
38853;SDS011;24606;51.992;4.198;2022-10-16T18:39:36;9.48;;;2.30;;
38853;SDS011;24606;51.992;4.198;2022-10-16T18:44:39;15.60;;;2.58;;
38853;SDS011;24606;51.992;4.198;2022-10-16T18:49:41;10.23;;;2.42;;
38853;SDS011;24606;51.992;4.198;2022-10-16T18:54:45;7.80;;;2.92;;
38853;SDS011;24606;51.992;4.198;2022-10-16T18:59:48;7.00;;;2.30;;
38853;SDS011;24606;51.992;4.198;2022-10-16T19:04:50;7.50;;;2.10;;
38853;SDS011;24606;51.992;4.198;2022-10-16T19:09:52;16.80;;;2.88;;
38853;SDS011;24606;51.992;4.198;2022-10-16T19:14:55;9.30;;;2.50;;
38853;SDS011;24606;51.992;4.198;2022-10-16T19:19:57;11.07;;;2.03;;
38853;SDS011;24606;51.992;4.198;2022-10-16T19:24:59;7.82;;;2.53;;
38853;SDS011;24606;51.992;4.198;2022-10-16T19:30:02;10.18;;;2.60;;
38853;SDS011;24606;51.992;4.198;2022-10-16T19:35:05;13.20;;;2.65;;
38853;SDS011;24606;51.992;4.198;2022-10-16T19:40:08;20.92;;;2.75;;
38853;SDS011;24606;51.992;4.198;2022-10-16T19:45:12;15.43;;;2.65;;
38853;SDS011;24606;51.992;4.198;2022-10-16T19:50:14;12.57;;;3.15;;
38853;SDS011;24606;51.992;4.198;2022-10-16T19:55:18;15.63;;;2.95;;
38853;SDS011;24606;51.992;4.198;2022-10-16T20:00:21;24.02;;;4.78;;
38853;SDS011;24606;51.992;4.198;2022-10-16T20:05:23;24.23;;;2.88;;
38853;SDS011;24606;51.992;4.198;2022-10-16T20:10:24;16.70;;;4.28;;
38853;SDS011;24606;51.992;4.198;2022-10-16T20:15:28;17.35;;;3.97;;
38853;SDS011;24606;51.992;4.198;2022-10-16T20:20:29;19.55;;;3.08;;
38853;SDS011;24606;51.992;4.198;2022-10-16T20:25:33;14.45;;;2.78;;
38853;SDS011;24606;51.992;4.198;2022-10-16T20:30:38;13.73;;;3.40;;
38853;SDS011;24606;51.992;4.198;2022-10-16T20:35:42;12.10;;;3.35;;
38853;SDS011;24606;51.992;4.198;2022-10-16T20:40:46;17.73;;;3.78;;
38853;SDS011;24606;51.992;4.198;2022-10-16T20:45:57;17.30;;;4.20;;
38853;SDS011;24606;51.992;4.198;2022-10-16T20:51:08;21.87;;;5.10;;
38853;SDS011;24606;51.992;4.198;2022-10-16T20:56:11;9.93;;;3.10;;
38853;SDS011;24606;51.992;4.198;2022-10-16T21:01:17;17.83;;;4.03;;
38853;SDS011;24606;51.992;4.198;2022-10-16T21:06:20;11.80;;;2.78;;
38853;SDS011;24606;51.992;4.198;2022-10-16T21:11:23;15.18;;;3.28;;
38853;SDS011;24606;51.992;4.198;2022-10-16T21:16:28;16.75;;;3.03;;
38853;SDS011;24606;51.992;4.198;2022-10-16T21:21:31;12.23;;;2.60;;
38853;SDS011;24606;51.992;4.198;2022-10-16T21:26:34;13.57;;;3.35;;
38853;SDS011;24606;51.992;4.198;2022-10-16T21:31:37;11.68;;;3.20;;
38853;SDS011;24606;51.992;4.198;2022-10-16T21:36:40;18.55;;;2.58;;
38853;SDS011;24606;51.992;4.198;2022-10-16T21:41:43;8.98;;;2.42;;
38853;SDS011;24606;51.992;4.198;2022-10-16T21:46:49;20.38;;;3.53;;
38853;SDS011;24606;51.992;4.198;2022-10-16T21:51:51;11.32;;;2.53;;
38853;SDS011;24606;51.992;4.198;2022-10-16T21:56:53;7.95;;;2.20;;
38853;SDS011;24606;51.992;4.198;2022-10-16T22:01:56;9.35;;;1.98;;
38853;SDS011;24606;51.992;4.198;2022-10-16T22:06:59;11.75;;;2.70;;
38853;SDS011;24606;51.992;4.198;2022-10-16T22:12:01;8.05;;;1.60;;
38853;SDS011;24606;51.992;4.198;2022-10-16T22:17:04;10.55;;;2.65;;
38853;SDS011;24606;51.992;4.198;2022-10-16T22:22:06;7.30;;;2.03;;
38853;SDS011;24606;51.992;4.198;2022-10-16T22:27:08;9.63;;;2.33;;
38853;SDS011;24606;51.992;4.198;2022-10-16T22:32:11;5.03;;;1.88;;
38853;SDS011;24606;51.992;4.198;2022-10-16T22:37:13;6.65;;;2.10;;
38853;SDS011;24606;51.992;4.198;2022-10-16T22:42:15;7.15;;;1.42;;
38853;SDS011;24606;51.992;4.198;2022-10-16T22:47:18;6.03;;;1.95;;
38853;SDS011;24606;51.992;4.198;2022-10-16T22:52:20;5.32;;;1.38;;
38853;SDS011;24606;51.992;4.198;2022-10-16T22:57:22;7.28;;;1.60;;
38853;SDS011;24606;51.992;4.198;2022-10-16T23:02:25;2.63;;;0.90;;
38853;SDS011;24606;51.992;4.198;2022-10-16T23:07:27;5.32;;;2.22;;
38853;SDS011;24606;51.992;4.198;2022-10-16T23:12:29;5.07;;;1.40;;
38853;SDS011;24606;51.992;4.198;2022-10-16T23:17:32;3.30;;;1.13;;
38853;SDS011;24606;51.992;4.198;2022-10-16T23:22:34;5.55;;;1.30;;
38853;SDS011;24606;51.992;4.198;2022-10-16T23:27:36;2.55;;;1.40;;
38853;SDS011;24606;51.992;4.198;2022-10-16T23:32:40;2.25;;;1.08;;
38853;SDS011;24606;51.992;4.198;2022-10-16T23:37:42;2.55;;;1.02;;
38853;SDS011;24606;51.992;4.198;2022-10-16T23:42:44;2.10;;;0.70;;
38853;SDS011;24606;51.992;4.198;2022-10-16T23:47:47;1.67;;;0.70;;
38853;SDS011;24606;51.992;4.198;2022-10-16T23:52:49;1.77;;;1.20;;
38853;SDS011;24606;51.992;4.198;2022-10-16T23:57:51;2.90;;;0.95;;
